createdAt,value
2023-05-06T00:01:38.328Z,101463.63
2023-05-06T00:04:41.109Z,101476.09
2023-05-06T00:07:43.555Z,101467.41
2023-05-06T00:10:46.053Z,101468.22
2023-05-06T00:13:48.657Z,101470.69
2023-05-06T00:16:51.203Z,101463.63
2023-05-06T00:19:53.751Z,101482.38
2023-05-06T00:22:56.444Z,101486.31
2023-05-06T00:25:58.782Z,101476.97
2023-05-06T00:29:01.140Z,101469.75
2023-05-06T00:32:03.544Z,101473.25
2023-05-06T00:35:06.925Z,101466.56
2023-05-06T00:38:09.402Z,101470.16
2023-05-06T00:41:11.816Z,101470.31
2023-05-06T00:44:14.286Z,101471.63
2023-05-06T00:47:16.823Z,101468.91
2023-05-06T00:50:19.734Z,101481.56
2023-05-06T00:53:22.270Z,101464.09
2023-05-06T00:56:24.641Z,101483.84
2023-05-06T00:59:27.092Z,101470.34
2023-05-06T01:02:43.428Z,101477.19
2023-05-06T01:06:03.588Z,101479.06
2023-05-06T01:09:15.830Z,101465.97
2023-05-06T01:12:35.143Z,101479.91
2023-05-06T01:15:43.408Z,101483.44
2023-05-06T01:18:46.645Z,101483.03
2023-05-06T01:21:51.729Z,101467.88
2023-05-06T01:24:54.057Z,101478.69
2023-05-06T01:27:57.422Z,101484.28
2023-05-06T01:31:09.394Z,101478.88
2023-05-06T01:34:27.335Z,101488.41
2023-05-06T01:37:34.237Z,101492.19
2023-05-06T01:40:36.964Z,101483.03
2023-05-06T01:43:42.685Z,101486.16
2023-05-06T01:46:46.169Z,101477.22
2023-05-06T01:49:48.620Z,101477.81
2023-05-06T01:52:59.364Z,101487.16
2023-05-06T01:56:01.673Z,101479.28
2023-05-06T01:59:04.052Z,101477.00
2023-05-06T02:02:06.926Z,101479.06
2023-05-06T02:05:09.820Z,101470.56
2023-05-06T02:08:18.236Z,101463.06
2023-05-06T02:11:21.302Z,101462.47
2023-05-06T02:14:27.146Z,101478.00
2023-05-06T02:17:30.630Z,101479.50
2023-05-06T02:20:33.082Z,101467.63
2023-05-06T02:23:35.672Z,101474.53
2023-05-06T02:26:37.985Z,101470.97
2023-05-06T02:29:40.387Z,101464.50
2023-05-06T02:32:42.953Z,101462.88
2023-05-06T02:35:45.438Z,101444.59
2023-05-06T02:38:47.756Z,101463.31
2023-05-06T02:41:50.086Z,101428.41
2023-05-06T02:44:53.900Z,101456.00
2023-05-06T02:47:56.357Z,101455.00
2023-05-06T02:50:58.677Z,101466.00
2023-05-06T02:54:01.138Z,101462.44
2023-05-06T02:57:03.477Z,101462.22
2023-05-06T03:00:06.722Z,101464.75
2023-05-06T03:03:10.119Z,101463.72
2023-05-06T03:06:12.495Z,101468.91
2023-05-06T03:09:15.520Z,101468.50
2023-05-06T03:12:18.134Z,101466.00
2023-05-06T03:15:20.581Z,101466.22
2023-05-06T03:18:23.219Z,101466.84
2023-05-06T03:21:26.401Z,101461.84
2023-05-06T03:24:29.121Z,101454.56
2023-05-06T03:27:31.772Z,101440.59
2023-05-06T03:30:40.600Z,101443.84
2023-05-06T03:33:43.682Z,101451.13
2023-05-06T03:36:47.471Z,101439.38
2023-05-06T03:39:50.873Z,101441.66
2023-05-06T03:42:55.221Z,101450.59
2023-05-06T03:45:59.294Z,101454.16
2023-05-06T03:49:02.970Z,101459.94
2023-05-06T03:52:05.981Z,101462.25
2023-05-06T03:55:09.066Z,101455.38
2023-05-06T03:58:13.210Z,101465.34
2023-05-06T04:01:18.327Z,101462.88
2023-05-06T04:04:21.112Z,101442.66
2023-05-06T04:07:23.604Z,101460.53
2023-05-06T04:10:26.460Z,101462.84
2023-05-06T04:13:34.436Z,101468.66
2023-05-06T04:16:40.978Z,101467.41
2023-05-06T04:19:43.931Z,101457.22
2023-05-06T04:22:46.385Z,101455.75
2023-05-06T04:25:49.304Z,101430.88
2023-05-06T04:28:53.845Z,101450.75
2023-05-06T04:31:57.668Z,101454.72
2023-05-06T04:35:02.869Z,101446.22
2023-05-06T04:38:06.253Z,101456.75
2023-05-06T04:41:10.164Z,101433.41
2023-05-06T04:44:12.838Z,101447.19
2023-05-06T04:47:17.934Z,101440.50
2023-05-06T04:50:24.031Z,101440.84
2023-05-06T04:53:27.906Z,101444.88
2023-05-06T04:56:30.313Z,101448.34
2023-05-06T04:59:32.564Z,101448.75
2023-05-06T05:02:37.105Z,101457.06
2023-05-06T05:05:40.627Z,101442.09
2023-05-06T05:08:50.042Z,101441.09
2023-05-06T05:11:53.508Z,101426.47
2023-05-06T05:14:55.766Z,101436.25
2023-05-06T05:17:58.932Z,101440.78
2023-05-06T05:21:01.975Z,101438.78
2023-05-06T05:24:05.402Z,101438.72
2023-05-06T05:27:07.869Z,101413.75
2023-05-06T05:30:11.761Z,101439.16
2023-05-06T05:33:15.244Z,101426.78
2023-05-06T05:36:18.823Z,101428.28
2023-05-06T05:39:23.574Z,101440.34
2023-05-06T05:42:25.927Z,101436.94
2023-05-06T05:45:28.556Z,101421.25
2023-05-06T05:48:32.883Z,101434.88
2023-05-06T05:51:37.169Z,101439.91
2023-05-06T05:54:41.134Z,101429.53
2023-05-06T05:57:43.533Z,101421.72
2023-05-06T06:00:46.404Z,101438.94
2023-05-06T06:03:52.575Z,101432.34
2023-05-06T06:07:01.881Z,101426.09
2023-05-06T06:10:07.356Z,101426.91
2023-05-06T06:13:09.758Z,101426.22
2023-05-06T06:16:12.796Z,101427.66
2023-05-06T06:19:15.995Z,101426.91
2023-05-06T06:22:19.002Z,101406.44
2023-05-06T06:25:22.236Z,101416.53
2023-05-06T06:28:24.714Z,101422.44
2023-05-06T06:31:27.188Z,101410.47
2023-05-06T06:34:29.689Z,101417.59
2023-05-06T06:37:32.295Z,101413.81
2023-05-06T06:40:34.606Z,101431.41
2023-05-06T06:43:37.053Z,101416.09
2023-05-06T06:46:52.000Z,101409.72
2023-05-06T06:49:54.485Z,101422.66
2023-05-06T06:52:56.822Z,101409.94
2023-05-06T06:55:59.198Z,101411.06
2023-05-06T06:59:01.572Z,101401.94
2023-05-06T07:02:04.141Z,101414.50
2023-05-06T07:05:06.975Z,101407.81
2023-05-06T07:08:09.377Z,101407.88
2023-05-06T07:11:14.389Z,101414.81
2023-05-06T07:14:16.824Z,101417.41
2023-05-06T07:17:19.417Z,101404.03
2023-05-06T07:20:21.883Z,101412.53
2023-05-06T07:23:24.201Z,101411.28
2023-05-06T07:26:26.564Z,101398.03
2023-05-06T07:29:29.159Z,101391.94
2023-05-06T07:32:31.680Z,101407.56
2023-05-06T07:35:34.189Z,101406.13
2023-05-06T07:38:36.701Z,101402.44
2023-05-06T07:41:39.141Z,101400.09
2023-05-06T07:44:41.619Z,101396.88
2023-05-06T07:47:44.058Z,101398.22
2023-05-06T07:50:46.543Z,101398.44
2023-05-06T07:53:48.967Z,101388.22
2023-05-06T07:56:51.446Z,101387.38
2023-05-06T07:59:53.946Z,101385.47
2023-05-06T08:02:56.400Z,101387.59
2023-05-06T08:05:59.109Z,101369.25
2023-05-06T08:09:01.504Z,101389.00
2023-05-06T08:12:04.113Z,101387.56
2023-05-06T08:15:07.135Z,101381.75
2023-05-06T08:18:20.728Z,101376.88
2023-05-06T08:21:24.472Z,101372.56
2023-05-06T08:24:27.003Z,101374.50
2023-05-06T08:27:29.320Z,101369.00
2023-05-06T08:30:31.744Z,101360.75
2023-05-06T08:33:34.068Z,101361.41
2023-05-06T08:36:36.458Z,101365.97
2023-05-06T08:39:38.841Z,101363.66
2023-05-06T08:42:41.160Z,101369.44
2023-05-06T08:45:43.678Z,101360.97
2023-05-06T08:48:46.305Z,101364.78
2023-05-06T08:51:50.646Z,101368.75
2023-05-06T08:54:54.662Z,101366.16
2023-05-06T08:57:58.041Z,101369.03
2023-05-06T09:01:01.103Z,101351.81
2023-05-06T09:04:04.142Z,101372.63
2023-05-06T09:07:06.782Z,101364.09
2023-05-06T09:10:15.633Z,101371.03
2023-05-06T09:13:19.738Z,101371.56
2023-05-06T09:16:29.719Z,101369.50
2023-05-06T09:19:32.062Z,101369.00
2023-05-06T09:22:34.505Z,101367.28
2023-05-06T09:25:37.765Z,101369.84
2023-05-06T09:28:40.279Z,101358.72
2023-05-06T09:31:45.011Z,101362.78
2023-05-06T09:34:49.520Z,101369.66
2023-05-06T09:37:52.337Z,101357.16
2023-05-06T09:40:54.721Z,101354.56
2023-05-06T09:43:58.078Z,101359.81
2023-05-06T09:47:00.620Z,101362.50
2023-05-06T09:50:03.698Z,101355.53
2023-05-06T09:53:06.406Z,101362.59
2023-05-06T09:56:09.325Z,101355.81
2023-05-06T09:59:11.957Z,101362.72
2023-05-06T10:02:14.559Z,101358.88
2023-05-06T10:05:17.401Z,101359.31
2023-05-06T10:08:20.287Z,101351.38
2023-05-06T10:11:23.288Z,101355.28
2023-05-06T10:14:26.084Z,101353.81
2023-05-06T10:17:29.361Z,101344.41
2023-05-06T10:20:32.304Z,101349.44
2023-05-06T10:23:50.966Z,101347.47
2023-05-06T10:26:55.731Z,101343.78
2023-05-06T10:30:00.459Z,101342.91
2023-05-06T10:33:08.268Z,101351.13
2023-05-06T10:36:23.898Z,101340.84
2023-05-06T10:39:27.017Z,101347.47
2023-05-06T10:42:35.481Z,101337.03
2023-05-06T10:46:09.400Z,101343.13
2023-05-06T10:49:12.457Z,101345.53
2023-05-06T10:52:18.790Z,101328.16
2023-05-06T10:55:35.512Z,101328.13
2023-05-06T10:58:41.215Z,101323.00
2023-05-06T11:01:44.640Z,101321.66
2023-05-06T11:04:53.401Z,101318.25
2023-05-06T11:08:09.795Z,101312.16
2023-05-06T11:11:47.110Z,101317.56
2023-05-06T11:14:50.026Z,101316.00
2023-05-06T11:17:54.631Z,101308.88
2023-05-06T11:21:03.603Z,101312.69
2023-05-06T11:24:05.993Z,101305.47
2023-05-06T11:27:09.876Z,101313.69
2023-05-06T11:30:15.401Z,101312.59
2023-05-06T11:33:22.318Z,101305.94
2023-05-06T11:36:24.640Z,101295.56
2023-05-06T11:39:30.999Z,101313.78
2023-05-06T11:42:33.625Z,101306.56
2023-05-06T11:45:50.806Z,101303.78
2023-05-06T11:48:53.243Z,101292.03
2023-05-06T11:51:59.649Z,101290.00
2023-05-06T11:55:01.976Z,101304.03
2023-05-06T11:58:04.369Z,101305.19
2023-05-06T12:01:06.786Z,101314.56
2023-05-06T12:04:09.473Z,101313.34
2023-05-06T12:07:13.784Z,101312.84
2023-05-06T12:10:17.303Z,101315.81
2023-05-06T12:13:20.065Z,101312.47
2023-05-06T12:16:23.242Z,101324.22
2023-05-06T12:19:26.725Z,101317.28
2023-05-06T12:22:29.144Z,101317.47
2023-05-06T12:25:31.540Z,101312.16
2023-05-06T12:28:36.015Z,101305.94
2023-05-06T12:31:38.299Z,101307.75
2023-05-06T12:34:41.837Z,101315.78
2023-05-06T12:37:44.170Z,101321.06
2023-05-06T12:40:53.949Z,101313.38
2023-05-06T12:43:56.410Z,101309.06
2023-05-06T12:47:07.538Z,101304.56
2023-05-06T12:50:10.444Z,101303.63
2023-05-06T12:53:13.815Z,101318.63
2023-05-06T12:56:16.193Z,101316.84
2023-05-06T12:59:18.768Z,101315.47
2023-05-06T13:02:21.245Z,101307.66
2023-05-06T13:05:23.612Z,101310.41
2023-05-06T13:08:25.989Z,101302.50
2023-05-06T13:11:28.340Z,101304.56
2023-05-06T13:14:30.865Z,101313.75
2023-05-06T13:17:33.273Z,101312.31
2023-05-06T13:20:36.288Z,101321.91
2023-05-06T13:23:41.891Z,101301.69
2023-05-06T13:26:44.262Z,101306.22
2023-05-06T13:29:46.555Z,101299.16
2023-05-06T13:32:49.030Z,101321.16
2023-05-06T13:35:51.466Z,101313.19
2023-05-06T13:38:54.425Z,101326.88
2023-05-06T13:41:56.833Z,101317.16
2023-05-06T13:44:59.144Z,101309.13
2023-05-06T13:48:01.444Z,101315.16
2023-05-06T13:51:04.216Z,101298.06
2023-05-06T13:54:07.101Z,101309.34
2023-05-06T13:57:09.498Z,101296.59
2023-05-06T14:00:12.598Z,101306.78
2023-05-06T14:03:15.145Z,101302.03
2023-05-06T14:06:17.685Z,101303.22
2023-05-06T14:09:20.126Z,101295.69
2023-05-06T14:12:23.089Z,101293.00
2023-05-06T14:15:25.618Z,101285.56
2023-05-06T14:18:28.410Z,101290.31
2023-05-06T14:21:30.852Z,101298.41
2023-05-06T14:24:33.249Z,101294.34
2023-05-06T14:27:35.624Z,101287.44
2023-05-06T14:30:38.925Z,101294.09
2023-05-06T14:33:41.309Z,101293.22
2023-05-06T14:36:43.933Z,101290.78
2023-05-06T14:39:46.315Z,101288.53
2023-05-06T14:42:49.043Z,101275.06
2023-05-06T14:45:51.538Z,101285.22
2023-05-06T14:48:53.865Z,101294.47
2023-05-06T14:51:57.722Z,101290.72
2023-05-06T14:55:00.148Z,101296.34
2023-05-06T14:58:02.694Z,101288.47
2023-05-06T15:01:05.384Z,101288.72
2023-05-06T15:04:12.661Z,101283.03
2023-05-06T15:07:15.254Z,101282.44
2023-05-06T15:10:17.681Z,101283.81
2023-05-06T15:13:20.152Z,101292.91
2023-05-06T15:16:22.620Z,101292.91
2023-05-06T15:19:25.226Z,101286.97
2023-05-06T15:22:27.631Z,101284.13
2023-05-06T15:25:35.795Z,101277.69
2023-05-06T15:28:39.165Z,101280.94
2023-05-06T15:31:41.653Z,101280.38
2023-05-06T15:34:44.234Z,101279.47
2023-05-06T15:37:46.646Z,101285.31
2023-05-06T15:40:52.806Z,101279.06
2023-05-06T15:43:58.299Z,101281.25
2023-05-06T15:47:01.024Z,101284.66
2023-05-06T15:50:11.184Z,101283.78
2023-05-06T15:53:23.454Z,101288.84
2023-05-06T15:56:27.294Z,101286.59
2023-05-06T15:59:29.741Z,101285.97
2023-05-06T16:02:32.908Z,101277.97
2023-05-06T16:05:35.626Z,101267.31
2023-05-06T16:08:39.124Z,101271.09
2023-05-06T16:11:41.750Z,101273.69
2023-05-06T16:14:44.847Z,101272.19
2023-05-06T16:17:47.203Z,101284.59
2023-05-06T16:20:49.601Z,101283.16
2023-05-06T16:23:52.064Z,101285.41
2023-05-06T16:26:55.752Z,101285.63
2023-05-06T16:29:58.211Z,101279.00
2023-05-06T16:33:00.685Z,101289.47
2023-05-06T16:36:04.039Z,101283.09
2023-05-06T16:39:08.478Z,101290.19
2023-05-06T16:42:10.955Z,101281.94
2023-05-06T16:45:13.261Z,101283.25
2023-05-06T16:48:16.626Z,101283.13
2023-05-06T16:51:19.020Z,101285.88
2023-05-06T16:54:21.423Z,101277.97
2023-05-06T16:57:23.845Z,101271.81
2023-05-06T17:00:27.239Z,101275.28
2023-05-06T17:03:29.880Z,101284.75
2023-05-06T17:06:33.056Z,101280.81
2023-05-06T17:09:35.442Z,101272.53
2023-05-06T17:12:38.228Z,101281.84
2023-05-06T17:15:40.799Z,101283.19
2023-05-06T17:18:43.220Z,101277.03
2023-05-06T17:21:45.519Z,101281.22
2023-05-06T17:24:48.214Z,101289.22
2023-05-06T17:27:50.687Z,101282.09
2023-05-06T17:30:53.025Z,101283.19
2023-05-06T17:33:55.624Z,101291.31
2023-05-06T17:36:57.929Z,101298.34
2023-05-06T17:40:00.257Z,101287.66
2023-05-06T17:43:02.602Z,101281.03
2023-05-06T17:46:05.057Z,101288.53
2023-05-06T17:49:07.484Z,101298.31
2023-05-06T17:52:09.865Z,101291.72
2023-05-06T17:55:17.102Z,101292.91
2023-05-06T17:58:20.771Z,101290.34
2023-05-06T18:01:23.306Z,101294.25
2023-05-06T18:04:25.817Z,101286.72
2023-05-06T18:07:28.121Z,101293.94
2023-05-06T18:10:30.551Z,101303.34
2023-05-06T18:13:36.704Z,101306.66
2023-05-06T18:16:39.220Z,101301.88
2023-05-06T18:19:41.708Z,101304.53
2023-05-06T18:22:44.138Z,101303.94
2023-05-06T18:25:46.484Z,101307.19
2023-05-06T18:28:49.334Z,101311.44
2023-05-06T18:31:51.808Z,101300.38
2023-05-06T18:34:54.410Z,101301.44
2023-05-06T18:37:56.789Z,101304.25
2023-05-06T18:40:59.527Z,101306.44
2023-05-06T18:44:04.359Z,101312.81
2023-05-06T18:47:06.719Z,101319.44
2023-05-06T18:50:09.430Z,101316.13
2023-05-06T18:53:11.829Z,101315.06
2023-05-06T18:56:14.640Z,101315.47
2023-05-06T18:59:17.018Z,101326.63
2023-05-06T19:02:19.462Z,101315.28
2023-05-06T19:05:22.231Z,101318.00
2023-05-06T19:08:24.700Z,101321.88
2023-05-06T19:11:27.079Z,101316.28
2023-05-06T19:14:29.387Z,101324.88
2023-05-06T19:17:31.811Z,101326.34
2023-05-06T19:20:35.456Z,101329.00
2023-05-06T19:23:38.659Z,101331.56
2023-05-06T19:26:41.344Z,101328.31
2023-05-06T19:29:43.714Z,101326.44
2023-05-06T19:32:46.130Z,101328.81
2023-05-06T19:35:48.498Z,101329.81
2023-05-06T19:38:50.923Z,101332.63
2023-05-06T19:41:55.101Z,101333.84
2023-05-06T19:44:57.628Z,101326.84
2023-05-06T19:48:00.862Z,101319.56
2023-05-06T19:51:03.937Z,101325.13
2023-05-06T19:54:06.398Z,101321.41
2023-05-06T19:57:08.670Z,101321.81
2023-05-06T20:00:12.160Z,101297.63
2023-05-06T20:03:14.716Z,101328.59
2023-05-06T20:06:17.328Z,101323.22
2023-05-06T20:09:19.710Z,101331.28
2023-05-06T20:12:23.098Z,101331.81
2023-05-06T20:15:26.796Z,101326.63
2023-05-06T20:18:29.110Z,101329.34
2023-05-06T20:21:31.623Z,101320.13
2023-05-06T20:24:34.884Z,101313.56
2023-05-06T20:27:37.588Z,101319.69
2023-05-06T20:30:40.054Z,101325.28
2023-05-06T20:33:42.555Z,101323.38
2023-05-06T20:36:45.332Z,101327.13
2023-05-06T20:39:47.755Z,101321.78
2023-05-06T20:42:50.118Z,101334.56
2023-05-06T20:45:52.531Z,101337.88
2023-05-06T20:48:54.952Z,101326.91
2023-05-06T20:51:57.527Z,101327.78
2023-05-06T20:54:59.951Z,101334.72
2023-05-06T20:58:02.466Z,101322.69
2023-05-06T21:01:04.858Z,101333.34
2023-05-06T21:04:07.388Z,101335.97
2023-05-06T21:07:09.780Z,101332.69
2023-05-06T21:10:12.154Z,101339.47
2023-05-06T21:13:14.540Z,101345.97
2023-05-06T21:16:16.956Z,101340.31
2023-05-06T21:19:19.808Z,101339.03
2023-05-06T21:22:25.008Z,101346.84
2023-05-06T21:25:27.378Z,101341.19
2023-05-06T21:28:29.718Z,101347.81
2023-05-06T21:31:32.230Z,101344.31
2023-05-06T21:34:35.632Z,101351.03
2023-05-06T21:37:37.996Z,101345.97
2023-05-06T21:40:40.491Z,101352.25
2023-05-06T21:43:43.240Z,101339.38
2023-05-06T21:46:45.665Z,101343.28
2023-05-06T21:49:48.156Z,101343.88
2023-05-06T21:52:50.570Z,101344.44
2023-05-06T21:55:52.845Z,101350.66
2023-05-06T21:58:55.956Z,101361.88
2023-05-06T22:01:58.333Z,101362.84
2023-05-06T22:05:00.683Z,101366.19
2023-05-06T22:08:02.975Z,101363.09
2023-05-06T22:11:05.316Z,101367.22
2023-05-06T22:14:07.721Z,101371.59
2023-05-06T22:17:10.754Z,101370.19
2023-05-06T22:20:15.193Z,101370.63
2023-05-06T22:23:19.696Z,101372.22
2023-05-06T22:26:22.047Z,101365.47
2023-05-06T22:29:24.435Z,101365.56
2023-05-06T22:32:26.772Z,101372.75
2023-05-06T22:35:29.117Z,101375.59
2023-05-06T22:38:31.447Z,101366.91
2023-05-06T22:41:33.685Z,101377.03
2023-05-06T22:44:35.942Z,101362.72
2023-05-06T22:47:38.255Z,101366.25
2023-05-06T22:50:41.028Z,101365.44
2023-05-06T22:53:43.789Z,101373.28
2023-05-06T22:56:46.273Z,101369.38
2023-05-06T22:59:48.845Z,101368.13
2023-05-06T23:02:51.326Z,101369.19
2023-05-06T23:05:53.753Z,101369.19
2023-05-06T23:08:57.681Z,101372.13
2023-05-06T23:12:00.048Z,101372.66
2023-05-06T23:15:02.650Z,101380.84
2023-05-06T23:18:05.390Z,101394.66
2023-05-06T23:21:07.979Z,101377.84
2023-05-06T23:24:10.692Z,101393.91
2023-05-06T23:27:13.095Z,101393.06
2023-05-06T23:30:15.739Z,101392.31
2023-05-06T23:33:18.081Z,101393.38
2023-05-06T23:36:20.559Z,101392.13
2023-05-06T23:39:22.924Z,101394.03
2023-05-06T23:42:25.971Z,101400.13
2023-05-06T23:45:28.654Z,101393.91
2023-05-06T23:48:30.986Z,101407.44
2023-05-06T23:51:33.457Z,101408.78
2023-05-06T23:54:35.844Z,101416.84
2023-05-06T23:57:38.562Z,101408.19
